CheckWX is a tool to help pilots better visualize weather data.  It is not intended as a substitute for an official pre-flight weather briefing.

06:16:14 UTC

KBTV TAF
Burlington International Airport
Burlington, Vermont, USA
KBTV 240533Z 2406/2506 19013G20KT P6SM VCSH OVC045 TEMPO 2406/2410 BKN028 FM241000 21014G24KT P6SM VCSH OVC030 FM242100 34007KT P6SM BKN026

Apr-24@
06:00 UTC

Apr-24 @ 06:00 UTC

Apr-24@
10:00 UTC

Apr-24 @ 10:00 UTC

KBTV 240533Z 2406/2506 19013G20KT P6SM VCSH OVC045
Wind
  • 190° at 13 KTS
  • {Gusting to 20 KTS
Cloud Levels
  • Overcast at 4,500' AGL

Apr-24@
06:00 UTC

Apr-24 @ 06:00 UTC

Apr-24@
10:00 UTC

Apr-24 @ 10:00 UTC

TEMPO 2406/2410 BKN028

Temporary

Temporary Changes expected for less than half the time period

Cloud Levels
  • Broken at 2,800' AGL

Apr-24@
10:00 UTC

Apr-24 @ 10:00 UTC

Apr-24@
21:00 UTC

Apr-24 @ 21:00 UTC

FM241000 21014G24KT P6SM VCSH OVC030

From

From Standard forecast or significant change

Wind
  • 210° at 14 KTS
  • {Gusting to 24 KTS
Cloud Levels
  • Overcast at 3,000' AGL

Apr-24@
21:00 UTC

Apr-24 @ 21:00 UTC

Apr-25@
06:00 UTC

Apr-25 @ 06:00 UTC

FM242100 34007KT P6SM BKN026

From

From Standard forecast or significant change

Wind
  • 340° at 7 KTS
Cloud Levels
  • Broken at 2,600' AGL